createdAt,value
2018-07-12T00:00:02.540Z,14.02
2018-07-12T00:00:06.640Z,13.99
2018-07-12T00:00:10.675Z,13.94
2018-07-12T00:00:14.883Z,13.99
2018-07-12T00:00:19.094Z,13.98
2018-07-12T00:00:23.189Z,14.01
2018-07-12T00:00:27.512Z,14.01
2018-07-12T00:00:31.721Z,13.99
2018-07-12T00:00:35.929Z,14.05
2018-07-12T00:00:40.134Z,14.01
2018-07-12T00:00:44.345Z,14.04
2018-07-12T00:00:48.661Z,14.02
2018-07-12T00:00:52.967Z,14.01
2018-07-12T00:00:57.200Z,13.96
2018-07-12T00:01:01.526Z,14.04
2018-07-12T00:01:05.414Z,14.01
2018-07-12T00:01:09.510Z,13.98
2018-07-12T00:01:13.715Z,14.01
2018-07-12T00:01:18.046Z,13.96
2018-07-12T00:01:22.353Z,13.98
2018-07-12T00:01:26.559Z,14.01
2018-07-12T00:01:30.877Z,14.02
2018-07-12T00:01:35.193Z,13.96
2018-07-12T00:01:39.444Z,13.99
2018-07-12T00:01:43.658Z,13.9
2018-07-12T00:01:47.871Z,13.99
2018-07-12T00:01:52.194Z,13.94
2018-07-12T00:01:56.399Z,13.98
2018-07-12T00:02:00.715Z,13.94
2018-07-12T00:02:04.704Z,13.98
2018-07-12T00:02:08.799Z,13.93
2018-07-12T00:02:13.114Z,13.96
2018-07-12T00:02:17.327Z,13.96
2018-07-12T00:02:21.638Z,13.98
2018-07-12T00:02:25.945Z,13.96
2018-07-12T00:02:30.150Z,13.93
2018-07-12T00:02:34.250Z,14.01
2018-07-12T00:02:38.560Z,13.98
2018-07-12T00:02:42.659Z,13.98
2018-07-12T00:02:46.971Z,13.98
2018-07-12T00:02:51.176Z,13.98
2018-07-12T00:02:55.378Z,13.96
2018-07-12T00:02:59.691Z,13.98
2018-07-12T00:03:03.904Z,13.84
2018-07-12T00:03:07.908Z,13.96
2018-07-12T00:03:12.111Z,13.94
2018-07-12T00:03:16.421Z,13.93
2018-07-12T00:03:20.733Z,13.96
2018-07-12T00:03:24.942Z,13.98
2018-07-12T00:03:29.034Z,13.98
2018-07-12T00:03:33.347Z,13.9
2018-07-12T00:03:37.552Z,13.9
2018-07-12T00:03:41.757Z,14.02
2018-07-12T00:03:45.959Z,14.01
2018-07-12T00:03:49.950Z,13.94
2018-07-12T00:03:54.264Z,13.96
2018-07-12T00:03:58.362Z,13.94
2018-07-12T00:04:02.453Z,13.88
2018-07-12T00:04:06.666Z,13.96
2018-07-12T00:04:10.866Z,13.88
2018-07-12T00:04:15.179Z,13.9
2018-07-12T00:04:19.321Z,13.86
2018-07-12T00:04:23.538Z,13.91
2018-07-12T00:04:27.635Z,13.9
2018-07-12T00:04:31.954Z,13.91
2018-07-12T00:04:36.268Z,13.84
2018-07-12T00:04:40.259Z,13.83
2018-07-12T00:04:44.466Z,13.87
2018-07-12T00:04:48.673Z,13.84
2018-07-12T00:04:52.883Z,13.86
2018-07-12T00:04:57.195Z,13.91
2018-07-12T00:05:01.514Z,13.84
2018-07-12T00:05:05.612Z,13.93
2018-07-12T00:05:09.719Z,13.88
2018-07-12T00:05:14.039Z,13.88
2018-07-12T00:05:18.244Z,13.86
2018-07-12T00:05:22.340Z,13.86
2018-07-12T00:05:26.551Z,13.88
2018-07-12T00:05:30.860Z,13.88
2018-07-12T00:05:35.067Z,13.94
2018-07-12T00:05:39.384Z,13.9
2018-07-12T00:05:43.698Z,13.87
2018-07-12T00:05:48.008Z,13.94
2018-07-12T00:05:52.219Z,13.86
2018-07-12T00:05:56.527Z,13.9
2018-07-12T00:06:00.739Z,13.87
2018-07-12T00:06:04.842Z,13.88
2018-07-12T00:06:09.065Z,13.81
2018-07-12T00:06:13.287Z,13.84
2018-07-12T00:06:17.493Z,13.81
2018-07-12T00:06:21.810Z,13.88
2018-07-12T00:06:26.125Z,13.86
2018-07-12T00:06:30.326Z,13.86
2018-07-12T00:06:34.636Z,13.86
2018-07-12T00:06:38.948Z,13.87
2018-07-12T00:06:43.152Z,13.87
2018-07-12T00:06:47.371Z,13.86
2018-07-12T00:06:51.679Z,13.84
2018-07-12T00:06:55.990Z,13.84
2018-07-12T00:07:00.302Z,13.86
2018-07-12T00:07:04.295Z,13.81
2018-07-12T00:07:08.495Z,13.86
2018-07-12T00:07:12.810Z,13.83
2018-07-12T00:07:17.023Z,13.83
2018-07-12T00:07:21.228Z,13.91
2018-07-12T00:07:25.541Z,13.81
2018-07-12T00:07:29.748Z,13.86
2018-07-12T00:07:34.061Z,13.83
2018-07-12T00:07:38.261Z,13.84
2018-07-12T00:07:42.469Z,13.86
2018-07-12T00:07:46.685Z,13.8
2018-07-12T00:07:51.012Z,13.84
2018-07-12T00:07:55.215Z,13.87
2018-07-12T00:07:59.523Z,13.87
2018-07-12T00:08:03.726Z,13.84
2018-07-12T00:08:07.934Z,13.84
2018-07-12T00:08:12.146Z,13.81
2018-07-12T00:08:16.243Z,13.91
2018-07-12T00:08:20.448Z,13.87
2018-07-12T00:08:24.435Z,13.88
2018-07-12T00:08:28.746Z,13.83
2018-07-12T00:08:32.852Z,13.81
2018-07-12T00:08:37.054Z,13.86
2018-07-12T00:08:41.267Z,13.81
2018-07-12T00:08:45.583Z,13.86
2018-07-12T00:08:49.896Z,13.81
2018-07-12T00:08:54.211Z,13.83
2018-07-12T00:08:58.418Z,13.86
2018-07-12T00:09:02.733Z,13.84
2018-07-12T00:09:06.834Z,13.86
2018-07-12T00:09:11.087Z,13.81
2018-07-12T00:09:15.290Z,13.88
2018-07-12T00:09:19.605Z,13.84
2018-07-12T00:09:23.808Z,13.75
2018-07-12T00:09:28.123Z,13.76
2018-07-12T00:09:32.435Z,13.72
2018-07-12T00:09:36.795Z,13.84
2018-07-12T00:09:41.116Z,13.87
2018-07-12T00:09:45.434Z,13.84
2018-07-12T00:09:49.639Z,13.81
2018-07-12T00:09:53.953Z,13.75
2018-07-12T00:09:58.268Z,13.73
2018-07-12T00:10:02.410Z,13.76
2018-07-12T00:10:06.618Z,13.75
2018-07-12T00:10:10.823Z,13.79
2018-07-12T00:10:15.131Z,13.71
2018-07-12T00:10:19.328Z,13.73
2018-07-12T00:10:23.634Z,13.69
2018-07-12T00:10:27.946Z,13.72
2018-07-12T00:10:32.149Z,13.76
2018-07-12T00:10:36.246Z,13.76
2018-07-12T00:10:40.553Z,13.68
2018-07-12T00:10:44.753Z,13.71
2018-07-12T00:10:49.059Z,13.76
2018-07-12T00:10:53.368Z,13.76
2018-07-12T00:10:57.572Z,13.76
2018-07-12T00:11:01.668Z,13.73
2018-07-12T00:11:05.659Z,13.73
2018-07-12T00:11:09.980Z,13.76
2018-07-12T00:11:14.301Z,13.66
2018-07-12T00:11:18.512Z,13.72
2018-07-12T00:11:22.710Z,13.73
2018-07-12T00:11:27.023Z,13.68
2018-07-12T00:11:31.232Z,13.72
2018-07-12T00:11:35.543Z,13.72
2018-07-12T00:11:39.863Z,13.68
2018-07-12T00:11:44.177Z,13.72
2018-07-12T00:11:48.383Z,13.71
2018-07-12T00:11:52.693Z,13.73
2018-07-12T00:11:56.997Z,13.72
2018-07-12T00:12:01.199Z,13.71
2018-07-12T00:12:05.455Z,13.71
2018-07-12T00:12:09.442Z,13.73
2018-07-12T00:12:13.759Z,13.76
2018-07-12T00:12:17.858Z,13.68
2018-07-12T00:12:22.174Z,13.76
2018-07-12T00:12:26.377Z,13.75
2018-07-12T00:12:30.577Z,13.73
2018-07-12T00:12:34.887Z,13.63
2018-07-12T00:12:39.093Z,13.71
2018-07-12T00:12:43.186Z,13.73
2018-07-12T00:12:47.496Z,13.65
2018-07-12T00:12:51.695Z,13.72
2018-07-12T00:12:56.007Z,13.65
2018-07-12T00:13:00.212Z,13.69
2018-07-12T00:13:04.424Z,13.65
2018-07-12T00:13:08.736Z,13.72
2018-07-12T00:13:12.937Z,13.69
2018-07-12T00:13:17.197Z,13.65
2018-07-12T00:13:21.503Z,13.73
2018-07-12T00:13:25.711Z,13.66
2018-07-12T00:13:29.918Z,13.69
2018-07-12T00:13:34.238Z,13.65
2018-07-12T00:13:38.437Z,13.65
2018-07-12T00:13:42.761Z,13.69
2018-07-12T00:13:47.074Z,13.66
2018-07-12T00:13:51.276Z,13.61
2018-07-12T00:13:55.479Z,13.61
2018-07-12T00:13:59.689Z,13.65
2018-07-12T00:14:03.898Z,13.66
2018-07-12T00:14:08.109Z,13.65
2018-07-12T00:14:12.311Z,13.65
2018-07-12T00:14:16.515Z,13.65
2018-07-12T00:14:20.509Z,13.63
2018-07-12T00:14:24.832Z,13.65
2018-07-12T00:14:29.042Z,13.55
2018-07-12T00:14:33.359Z,13.54
2018-07-12T00:14:37.568Z,13.62
2018-07-12T00:14:41.670Z,13.55
2018-07-12T00:14:45.985Z,13.57
2018-07-12T00:14:50.189Z,13.55
2018-07-12T00:14:54.500Z,13.63
2018-07-12T00:14:58.702Z,13.55
2018-07-12T00:15:02.707Z,13.59
2018-07-12T00:15:06.697Z,13.61
2018-07-12T00:15:11.011Z,13.61
2018-07-12T00:15:15.319Z,13.62
2018-07-12T00:15:19.680Z,13.65
2018-07-12T00:15:23.890Z,13.55
2018-07-12T00:15:28.215Z,13.55
2018-07-12T00:15:32.417Z,13.62
2018-07-12T00:15:36.724Z,13.62
2018-07-12T00:15:41.040Z,13.62
2018-07-12T00:15:45.155Z,13.53
2018-07-12T00:15:49.263Z,13.62
2018-07-12T00:15:53.470Z,13.53
2018-07-12T00:15:57.780Z,13.53
2018-07-12T00:16:02.164Z,13.59
2018-07-12T00:16:06.152Z,13.61
2018-07-12T00:16:10.251Z,13.53
2018-07-12T00:16:14.560Z,13.54
2018-07-12T00:16:18.665Z,13.53
2018-07-12T00:16:22.865Z,13.53
2018-07-12T00:16:27.179Z,13.5
2018-07-12T00:16:31.386Z,13.54
2018-07-12T00:16:35.689Z,13.5
2018-07-12T00:16:40.008Z,13.47
2018-07-12T00:16:44.217Z,13.55
2018-07-12T00:16:48.420Z,13.46
2018-07-12T00:16:52.517Z,13.57
2018-07-12T00:16:56.722Z,13.5
2018-07-12T00:17:01.032Z,13.54
2018-07-12T00:17:05.024Z,13.5
2018-07-12T00:17:09.338Z,13.54
2018-07-12T00:17:13.652Z,13.55
2018-07-12T00:17:17.963Z,13.5
2018-07-12T00:17:22.178Z,13.53
2018-07-12T00:17:26.395Z,13.51
2018-07-12T00:17:30.599Z,13.51
2018-07-12T00:17:34.811Z,13.48
2018-07-12T00:17:39.118Z,13.48
2018-07-12T00:17:43.317Z,13.51
2018-07-12T00:17:47.528Z,13.46
2018-07-12T00:17:51.746Z,13.43
2018-07-12T00:17:56.060Z,13.48
2018-07-12T00:18:00.371Z,13.51
2018-07-12T00:18:04.583Z,13.47
2018-07-12T00:18:08.785Z,13.48
2018-07-12T00:18:12.982Z,13.46
2018-07-12T00:18:17.293Z,13.5
2018-07-12T00:18:21.503Z,13.5
2018-07-12T00:18:25.707Z,13.47
2018-07-12T00:18:29.903Z,13.47
2018-07-12T00:18:34.265Z,13.44
2018-07-12T00:18:38.471Z,13.46
2018-07-12T00:18:42.459Z,13.43
2018-07-12T00:18:46.765Z,13.44
2018-07-12T00:18:51.073Z,13.43
2018-07-12T00:18:55.383Z,13.54
2018-07-12T00:18:59.695Z,13.46
2018-07-12T00:19:03.900Z,13.54
2018-07-12T00:19:08.217Z,13.41
2018-07-12T00:19:12.418Z,13.51
2018-07-12T00:19:16.621Z,13.48
2018-07-12T00:19:20.826Z,13.53
2018-07-12T00:19:24.927Z,13.46
2018-07-12T00:19:29.131Z,13.43
2018-07-12T00:19:33.327Z,13.41
2018-07-12T00:19:37.539Z,13.41
2018-07-12T00:19:41.758Z,13.38
2018-07-12T00:19:46.068Z,13.46
2018-07-12T00:19:50.276Z,13.43
2018-07-12T00:19:54.480Z,13.39
2018-07-12T00:19:58.797Z,13.41
2018-07-12T00:20:02.893Z,13.46
2018-07-12T00:20:06.993Z,13.41
2018-07-12T00:20:11.304Z,13.32
2018-07-12T00:20:15.632Z,13.41
2018-07-12T00:20:19.841Z,13.44
2018-07-12T00:20:24.041Z,13.44
2018-07-12T00:20:28.347Z,13.43
2018-07-12T00:20:32.447Z,13.5
2018-07-12T00:20:36.652Z,13.43
2018-07-12T00:20:40.858Z,13.39
2018-07-12T00:20:45.185Z,13.44
2018-07-12T00:20:49.386Z,13.39
2018-07-12T00:20:53.483Z,13.43
2018-07-12T00:20:57.799Z,13.5
2018-07-12T00:21:02.006Z,13.47
2018-07-12T00:21:06.328Z,13.36
2018-07-12T00:21:10.634Z,13.44
2018-07-12T00:21:14.956Z,13.41
2018-07-12T00:21:19.261Z,13.39
2018-07-12T00:21:23.573Z,13.38
2018-07-12T00:21:27.888Z,13.43
2018-07-12T00:21:32.098Z,13.41
2018-07-12T00:21:36.303Z,13.44
2018-07-12T00:21:40.412Z,13.5
2018-07-12T00:21:44.617Z,13.41
2018-07-12T00:21:48.832Z,13.44
2018-07-12T00:21:53.155Z,13.43
2018-07-12T00:21:57.361Z,13.43
2018-07-12T00:22:01.569Z,13.41
2018-07-12T00:22:05.453Z,13.41
2018-07-12T00:22:09.660Z,13.36
2018-07-12T00:22:13.874Z,13.36
2018-07-12T00:22:18.078Z,13.38
2018-07-12T00:22:22.390Z,13.41
2018-07-12T00:22:26.704Z,13.38
2018-07-12T00:22:31.015Z,13.35
2018-07-12T00:22:35.329Z,13.43
2018-07-12T00:22:39.643Z,13.39
2018-07-12T00:22:43.955Z,13.41
2018-07-12T00:22:48.054Z,13.44
2018-07-12T00:22:52.266Z,13.31
2018-07-12T00:22:56.569Z,13.41
2018-07-12T00:23:00.878Z,13.44
2018-07-12T00:23:05.146Z,13.44
2018-07-12T00:23:09.364Z,13.43
2018-07-12T00:23:13.459Z,13.44
2018-07-12T00:23:17.777Z,13.39
2018-07-12T00:23:21.979Z,13.41
2018-07-12T00:23:26.285Z,13.41
2018-07-12T00:23:30.378Z,13.44
2018-07-12T00:23:34.728Z,13.32
2018-07-12T00:23:39.039Z,13.38
2018-07-12T00:23:43.244Z,13.43
2018-07-12T00:23:47.460Z,13.35
2018-07-12T00:23:51.667Z,13.38
2018-07-12T00:23:55.983Z,13.39
2018-07-12T00:24:00.184Z,13.38
2018-07-12T00:24:04.493Z,13.43
2018-07-12T00:24:08.700Z,13.38
2018-07-12T00:24:12.796Z,13.31
2018-07-12T00:24:17.104Z,13.41
2018-07-12T00:24:21.428Z,13.41
2018-07-12T00:24:25.443Z,13.31
2018-07-12T00:24:29.544Z,13.35
2018-07-12T00:24:33.874Z,13.36
2018-07-12T00:24:38.185Z,13.41
2018-07-12T00:24:42.383Z,13.39
2018-07-12T00:24:46.580Z,13.32
2018-07-12T00:24:50.675Z,13.36
2018-07-12T00:24:54.982Z,13.36
2018-07-12T00:24:59.290Z,13.39
2018-07-12T00:25:03.531Z,13.35
2018-07-12T00:25:07.744Z,13.32
2018-07-12T00:25:11.957Z,13.36
2018-07-12T00:25:16.157Z,13.35
2018-07-12T00:25:20.391Z,13.36
2018-07-12T00:25:24.590Z,13.36
2018-07-12T00:25:28.690Z,13.29
2018-07-12T00:25:33.010Z,13.38
2018-07-12T00:25:37.218Z,13.29
2018-07-12T00:25:41.314Z,13.31
2018-07-12T00:25:45.622Z,13.36
2018-07-12T00:25:49.824Z,13.29
2018-07-12T00:25:54.137Z,13.36
2018-07-12T00:25:58.341Z,13.31
2018-07-12T00:26:02.633Z,13.35
2018-07-12T00:26:06.728Z,13.35
2018-07-12T00:26:10.825Z,13.32
2018-07-12T00:26:15.037Z,13.32
2018-07-12T00:26:19.148Z,13.27
2018-07-12T00:26:23.247Z,13.31
2018-07-12T00:26:27.469Z,13.35
2018-07-12T00:26:31.783Z,13.36
2018-07-12T00:26:35.985Z,13.35
2018-07-12T00:26:40.196Z,13.39
2018-07-12T00:26:44.505Z,13.35
2018-07-12T00:26:48.716Z,13.28
2018-07-12T00:26:52.923Z,13.32
2018-07-12T00:26:57.277Z,13.35
2018-07-12T00:27:01.584Z,13.27
2018-07-12T00:27:05.688Z,13.36
2018-07-12T00:27:09.890Z,13.27
2018-07-12T00:27:14.097Z,13.32
2018-07-12T00:27:18.412Z,13.25
2018-07-12T00:27:22.510Z,13.38
2018-07-12T00:27:26.715Z,13.31
2018-07-12T00:27:30.922Z,13.31
2018-07-12T00:27:35.132Z,13.32
2018-07-12T00:27:39.341Z,13.36
2018-07-12T00:27:43.440Z,13.22
2018-07-12T00:27:47.762Z,13.24
2018-07-12T00:27:52.017Z,13.22
2018-07-12T00:27:56.329Z,13.31
2018-07-12T00:28:00.527Z,13.28
2018-07-12T00:28:04.732Z,13.35
2018-07-12T00:28:08.936Z,13.31
2018-07-12T00:28:13.029Z,13.35
2018-07-12T00:28:17.234Z,13.32
2018-07-12T00:28:21.439Z,13.28
2018-07-12T00:28:25.642Z,13.28
2018-07-12T00:28:29.856Z,13.25
2018-07-12T00:28:34.166Z,13.27
2018-07-12T00:28:38.473Z,13.28
2018-07-12T00:28:42.575Z,13.31
2018-07-12T00:28:46.887Z,13.25
2018-07-12T00:28:51.193Z,13.32
2018-07-12T00:28:55.501Z,13.35
2018-07-12T00:28:59.601Z,13.29
2018-07-12T00:29:03.817Z,13.31
2018-07-12T00:29:08.124Z,13.28
2018-07-12T00:29:12.328Z,13.27
2018-07-12T00:29:16.631Z,13.22
2018-07-12T00:29:20.730Z,13.24
2018-07-12T00:29:25.044Z,13.28
2018-07-12T00:29:29.138Z,13.25
2018-07-12T00:29:33.455Z,13.25
2018-07-12T00:29:37.554Z,13.22
2018-07-12T00:29:41.754Z,13.22
2018-07-12T00:29:46.057Z,13.27
2018-07-12T00:29:50.156Z,13.24
2018-07-12T00:29:54.372Z,13.25
2018-07-12T00:29:58.585Z,13.28
2018-07-12T00:30:02.907Z,13.24
2018-07-12T00:30:07.109Z,13.25
2018-07-12T00:30:11.214Z,13.25
2018-07-12T00:30:15.523Z,13.24
2018-07-12T00:30:19.406Z,13.31
2018-07-12T00:30:23.497Z,13.31
2018-07-12T00:30:27.807Z,13.27
2018-07-12T00:30:32.013Z,13.29
2018-07-12T00:30:36.219Z,13.22
2018-07-12T00:30:40.325Z,13.22
2018-07-12T00:30:44.637Z,13.32
2018-07-12T00:30:48.947Z,13.28
2018-07-12T00:30:53.145Z,13.22
2018-07-12T00:30:57.466Z,13.25
2018-07-12T00:31:01.767Z,13.25
2018-07-12T00:31:05.972Z,13.29
2018-07-12T00:31:10.190Z,13.27
2018-07-12T00:31:14.498Z,13.31
2018-07-12T00:31:18.748Z,13.24
2018-07-12T00:31:23.067Z,13.28
2018-07-12T00:31:27.282Z,13.25
2018-07-12T00:31:31.484Z,13.27
2018-07-12T00:31:35.793Z,13.25
2018-07-12T00:31:39.887Z,13.24
2018-07-12T00:31:44.099Z,13.31
2018-07-12T00:31:48.298Z,13.27
2018-07-12T00:31:52.602Z,13.25
2018-07-12T00:31:56.910Z,13.28
2018-07-12T00:32:01.130Z,13.28
2018-07-12T00:32:05.448Z,13.32
2018-07-12T00:32:09.757Z,13.27
2018-07-12T00:32:13.859Z,13.24
2018-07-12T00:32:18.067Z,13.28
2018-07-12T00:32:22.268Z,13.29
2018-07-12T00:32:26.365Z,13.28
2018-07-12T00:32:30.568Z,13.27
2018-07-12T00:32:34.874Z,13.29
2018-07-12T00:32:39.078Z,13.27
2018-07-12T00:32:43.278Z,13.27
2018-07-12T00:32:47.481Z,13.32
2018-07-12T00:32:51.788Z,13.28
2018-07-12T00:32:56.102Z,13.27
2018-07-12T00:33:00.407Z,13.29
2018-07-12T00:33:04.723Z,13.27
2018-07-12T00:33:08.926Z,13.28
2018-07-12T00:33:13.037Z,13.28
2018-07-12T00:33:17.356Z,13.35
2018-07-12T00:33:21.605Z,13.27
2018-07-12T00:33:25.918Z,13.31
2018-07-12T00:33:30.232Z,13.28
2018-07-12T00:33:34.561Z,13.28
2018-07-12T00:33:38.921Z,13.29
2018-07-12T00:33:43.208Z,13.29
2018-07-12T00:33:48.105Z,13.28
2018-07-12T00:33:52.994Z,13.25
2018-07-12T00:33:57.319Z,13.28
2018-07-12T00:34:01.637Z,13.29
2018-07-12T00:34:05.958Z,13.35
2018-07-12T00:34:10.060Z,13.36
2018-07-12T00:34:14.264Z,13.36
2018-07-12T00:34:18.582Z,13.35
2018-07-12T00:34:22.898Z,13.36
2018-07-12T00:34:27.149Z,13.35
2018-07-12T00:34:31.353Z,13.29
2018-07-12T00:34:35.556Z,13.38
2018-07-12T00:34:39.774Z,13.35
2018-07-12T00:34:43.874Z,13.32
2018-07-12T00:34:48.073Z,13.29
2018-07-12T00:34:52.383Z,13.38
2018-07-12T00:34:56.701Z,13.35
2018-07-12T00:35:00.913Z,13.35
2018-07-12T00:35:05.013Z,13.24
2018-07-12T00:35:09.214Z,13.36
2018-07-12T00:35:13.423Z,13.31
2018-07-12T00:35:17.634Z,13.28
2018-07-12T00:35:21.943Z,13.38
2018-07-12T00:35:26.148Z,13.38
2018-07-12T00:35:30.354Z,13.38
2018-07-12T00:35:34.658Z,13.36
2018-07-12T00:35:38.864Z,13.31
2018-07-12T00:35:42.851Z,13.31
2018-07-12T00:35:47.058Z,13.32
2018-07-12T00:35:51.372Z,13.35
2018-07-12T00:35:55.688Z,13.35
2018-07-12T00:36:00.012Z,13.32
2018-07-12T00:36:04.289Z,13.35
2018-07-12T00:36:08.393Z,13.32
2018-07-12T00:36:12.713Z,13.32
2018-07-12T00:36:16.918Z,13.35
2018-07-12T00:36:21.235Z,13.36
2018-07-12T00:36:25.548Z,13.38
2018-07-12T00:36:29.752Z,13.35
2018-07-12T00:36:34.063Z,13.39
2018-07-12T00:36:38.265Z,13.36
2018-07-12T00:36:42.359Z,13.38
2018-07-12T00:36:46.457Z,13.39
2018-07-12T00:36:50.657Z,13.43
2018-07-12T00:36:54.970Z,13.41
2018-07-12T00:36:59.068Z,13.35
2018-07-12T00:37:03.381Z,13.35
2018-07-12T00:37:07.690Z,13.35
2018-07-12T00:37:12.054Z,13.43
2018-07-12T00:37:16.274Z,13.35
2018-07-12T00:37:20.266Z,13.41
2018-07-12T00:37:24.474Z,13.44
2018-07-12T00:37:28.785Z,13.39
2018-07-12T00:37:33.101Z,13.44
2018-07-12T00:37:37.309Z,13.41
2018-07-12T00:37:41.617Z,13.38
2018-07-12T00:37:45.823Z,13.41
2018-07-12T00:37:49.926Z,13.43
2018-07-12T00:37:54.241Z,13.41
2018-07-12T00:37:58.448Z,13.43
2018-07-12T00:38:02.661Z,13.36
2018-07-12T00:38:07.003Z,13.36
2018-07-12T00:38:11.206Z,13.41
2018-07-12T00:38:15.531Z,13.43
2018-07-12T00:38:19.740Z,13.43
2018-07-12T00:38:24.055Z,13.44
2018-07-12T00:38:28.263Z,13.36
2018-07-12T00:38:32.588Z,13.35
2018-07-12T00:38:36.682Z,13.41
2018-07-12T00:38:41.037Z,13.43
2018-07-12T00:38:45.356Z,13.44
2018-07-12T00:38:49.671Z,13.39
2018-07-12T00:38:53.870Z,13.39
2018-07-12T00:38:58.082Z,13.47
2018-07-12T00:39:02.392Z,13.39
2018-07-12T00:39:06.650Z,13.44
2018-07-12T00:39:10.955Z,13.47
2018-07-12T00:39:15.271Z,13.39
2018-07-12T00:39:19.580Z,13.36
2018-07-12T00:39:23.892Z,13.48
2018-07-12T00:39:27.990Z,13.46
2018-07-12T00:39:32.304Z,13.48
2018-07-12T00:39:36.613Z,13.46
2018-07-12T00:39:40.922Z,13.32
2018-07-12T00:39:45.240Z,13.44
2018-07-12T00:39:49.336Z,13.43
2018-07-12T00:39:53.656Z,13.35
2018-07-12T00:39:57.972Z,13.36
2018-07-12T00:40:02.353Z,13.39
2018-07-12T00:40:06.367Z,13.41
2018-07-12T00:40:10.573Z,13.39
2018-07-12T00:40:14.776Z,13.43
2018-07-12T00:40:18.973Z,13.43
2018-07-12T00:40:23.179Z,13.39
2018-07-12T00:40:27.382Z,13.41
2018-07-12T00:40:31.698Z,13.43
2018-07-12T00:40:35.794Z,13.35
2018-07-12T00:40:40.105Z,13.39
2018-07-12T00:40:44.356Z,13.44
2018-07-12T00:40:48.463Z,13.39
2018-07-12T00:40:52.777Z,13.39
2018-07-12T00:40:57.089Z,13.41
2018-07-12T00:41:01.398Z,13.43
2018-07-12T00:41:05.394Z,13.41
2018-07-12T00:41:09.488Z,13.43
2018-07-12T00:41:13.796Z,13.47
2018-07-12T00:41:17.999Z,13.44
2018-07-12T00:41:22.203Z,13.39
2018-07-12T00:41:26.409Z,13.41
2018-07-12T00:41:30.720Z,13.39
2018-07-12T00:41:34.921Z,13.41
2018-07-12T00:41:39.020Z,13.43
2018-07-12T00:41:43.220Z,13.41
2018-07-12T00:41:47.526Z,13.41
2018-07-12T00:41:51.837Z,13.44
2018-07-12T00:41:56.159Z,13.41
2018-07-12T00:42:00.368Z,13.53
2018-07-12T00:42:04.478Z,13.51
2018-07-12T00:42:08.473Z,13.38
2018-07-12T00:42:12.779Z,13.36
2018-07-12T00:42:17.095Z,13.5
2018-07-12T00:42:21.188Z,13.46
2018-07-12T00:42:25.285Z,13.36
2018-07-12T00:42:29.512Z,13.36
2018-07-12T00:42:33.822Z,13.51
2018-07-12T00:42:38.133Z,13.44
2018-07-12T00:42:42.450Z,13.41
2018-07-12T00:42:46.646Z,13.43
2018-07-12T00:42:50.857Z,13.46
2018-07-12T00:42:55.175Z,13.38
2018-07-12T00:42:59.382Z,13.43
2018-07-12T00:43:03.477Z,13.35
2018-07-12T00:43:07.783Z,13.46
2018-07-12T00:43:12.099Z,13.43
2018-07-12T00:43:16.411Z,13.44
2018-07-12T00:43:20.611Z,13.43
2018-07-12T00:43:24.922Z,13.41
2018-07-12T00:43:29.134Z,13.46
2018-07-12T00:43:33.442Z,13.46
2018-07-12T00:43:37.766Z,13.48
2018-07-12T00:43:41.860Z,13.48
2018-07-12T00:43:46.065Z,13.47
2018-07-12T00:43:50.176Z,13.51
2018-07-12T00:43:54.390Z,13.36
2018-07-12T00:43:58.590Z,13.41
2018-07-12T00:44:02.810Z,13.41
2018-07-12T00:44:07.019Z,13.5
2018-07-12T00:44:11.224Z,13.41
2018-07-12T00:44:15.436Z,13.35
2018-07-12T00:44:19.582Z,13.46
2018-07-12T00:44:23.894Z,13.38
2018-07-12T00:44:28.098Z,13.39
2018-07-12T00:44:32.088Z,13.35
2018-07-12T00:44:36.403Z,13.43
2018-07-12T00:44:40.393Z,13.36
2018-07-12T00:44:44.702Z,13.38
2018-07-12T00:44:48.797Z,13.44
2018-07-12T00:44:53.000Z,13.43
2018-07-12T00:44:57.203Z,13.44
2018-07-12T00:45:01.408Z,13.43
2018-07-12T00:45:05.506Z,13.38
2018-07-12T00:45:09.814Z,13.41
2018-07-12T00:45:14.126Z,13.46
2018-07-12T00:45:18.438Z,13.46
2018-07-12T00:45:22.543Z,13.44
2018-07-12T00:45:26.748Z,13.36
2018-07-12T00:45:30.945Z,13.47
2018-07-12T00:45:35.264Z,13.41
2018-07-12T00:45:39.467Z,13.43
2018-07-12T00:45:43.777Z,13.41
2018-07-12T00:45:47.978Z,13.44
2018-07-12T00:45:52.294Z,13.41
2018-07-12T00:45:56.603Z,13.43
2018-07-12T00:46:00.810Z,13.44
2018-07-12T00:46:04.918Z,13.36
2018-07-12T00:46:09.025Z,13.35
2018-07-12T00:46:13.226Z,13.43
2018-07-12T00:46:17.442Z,13.36
2018-07-12T00:46:21.657Z,13.43
2018-07-12T00:46:25.863Z,13.43
2018-07-12T00:46:30.067Z,13.41
2018-07-12T00:46:34.267Z,13.44
2018-07-12T00:46:38.468Z,13.39
2018-07-12T00:46:42.565Z,13.47
2018-07-12T00:46:46.880Z,13.38
2018-07-12T00:46:51.200Z,13.46
2018-07-12T00:46:55.510Z,13.41
2018-07-12T00:46:59.829Z,13.43
2018-07-12T00:47:04.060Z,13.43
2018-07-12T00:47:08.157Z,13.44
2018-07-12T00:47:12.372Z,13.43
2018-07-12T00:47:16.677Z,13.46
2018-07-12T00:47:20.877Z,13.46
2018-07-12T00:47:24.974Z,13.39
2018-07-12T00:47:28.748Z,13.29
2018-07-12T00:47:32.951Z,13.39
2018-07-12T00:47:37.154Z,13.35
2018-07-12T00:47:41.353Z,13.43
2018-07-12T00:47:45.661Z,13.43
2018-07-12T00:47:49.970Z,13.41
2018-07-12T00:47:54.278Z,13.38
2018-07-12T00:47:58.371Z,13.41
2018-07-12T00:48:02.678Z,13.43
2018-07-12T00:48:06.883Z,13.48
2018-07-12T00:48:11.192Z,13.38
2018-07-12T00:48:15.445Z,13.46
2018-07-12T00:48:19.434Z,13.41
2018-07-12T00:48:23.527Z,13.43
2018-07-12T00:48:27.841Z,13.43
2018-07-12T00:48:32.170Z,13.41
2018-07-12T00:48:36.378Z,13.36
2018-07-12T00:48:40.363Z,13.38
2018-07-12T00:48:44.669Z,13.43
2018-07-12T00:48:48.873Z,13.46
2018-07-12T00:48:53.188Z,13.39
2018-07-12T00:48:57.286Z,13.41
2018-07-12T00:49:01.492Z,13.43
2018-07-12T00:49:05.814Z,13.39
2018-07-12T00:49:10.026Z,13.48
2018-07-12T00:49:14.230Z,13.36
2018-07-12T00:49:18.536Z,13.46
2018-07-12T00:49:22.735Z,13.43
2018-07-12T00:49:26.939Z,13.41
2018-07-12T00:49:31.154Z,13.38
2018-07-12T00:49:35.459Z,13.44
2018-07-12T00:49:39.770Z,13.29
2018-07-12T00:49:43.968Z,13.41
2018-07-12T00:49:48.063Z,13.44
2018-07-12T00:49:52.369Z,13.31
2018-07-12T00:49:56.677Z,13.43
2018-07-12T00:50:00.981Z,13.39
2018-07-12T00:50:04.980Z,13.41
2018-07-12T00:50:09.084Z,13.39
2018-07-12T00:50:13.286Z,13.39
2018-07-12T00:50:17.494Z,13.43
2018-07-12T00:50:21.693Z,13.31
2018-07-12T00:50:25.896Z,13.41
2018-07-12T00:50:30.215Z,13.38
2018-07-12T00:50:34.532Z,13.36
2018-07-12T00:50:38.742Z,13.36
2018-07-12T00:50:42.949Z,13.39
2018-07-12T00:50:47.265Z,13.27
2018-07-12T00:50:51.575Z,13.35
2018-07-12T00:50:55.892Z,13.39
2018-07-12T00:51:00.198Z,13.41
2018-07-12T00:51:04.500Z,13.43
2018-07-12T00:51:08.607Z,13.39
2018-07-12T00:51:12.917Z,13.43
2018-07-12T00:51:17.235Z,13.41
2018-07-12T00:51:21.438Z,13.35
2018-07-12T00:51:25.651Z,13.38
2018-07-12T00:51:29.861Z,13.39
2018-07-12T00:51:34.172Z,13.43
2018-07-12T00:51:38.478Z,13.38
2018-07-12T00:51:42.685Z,13.36
2018-07-12T00:51:46.996Z,13.35
2018-07-12T00:51:51.350Z,13.35
2018-07-12T00:51:55.657Z,13.35
2018-07-12T00:51:59.762Z,13.38
2018-07-12T00:52:03.866Z,13.31
2018-07-12T00:52:08.068Z,13.32
2018-07-12T00:52:12.377Z,13.31
2018-07-12T00:52:16.578Z,13.32
2018-07-12T00:52:20.888Z,13.28
2018-07-12T00:52:25.082Z,13.38
2018-07-12T00:52:29.288Z,13.32
2018-07-12T00:52:33.597Z,13.25
2018-07-12T00:52:37.908Z,13.38
2018-07-12T00:52:42.006Z,13.35
2018-07-12T00:52:46.316Z,13.32
2018-07-12T00:52:50.516Z,13.36
2018-07-12T00:52:54.823Z,13.35
2018-07-12T00:52:59.035Z,13.28
2018-07-12T00:53:03.348Z,13.22
2018-07-12T00:53:07.340Z,13.24
2018-07-12T00:53:11.539Z,13.28
2018-07-12T00:53:15.641Z,13.28
2018-07-12T00:53:19.742Z,13.28
2018-07-12T00:53:23.938Z,13.32
2018-07-12T00:53:28.132Z,13.24
2018-07-12T00:53:32.334Z,13.24
2018-07-12T00:53:36.634Z,13.24
2018-07-12T00:53:40.834Z,13.24
2018-07-12T00:53:45.062Z,13.27
2018-07-12T00:53:49.371Z,13.28
2018-07-12T00:53:53.710Z,13.25
2018-07-12T00:53:57.908Z,13.28
2018-07-12T00:54:02.319Z,13.25
2018-07-12T00:54:06.313Z,13.25
2018-07-12T00:54:10.413Z,13.24
2018-07-12T00:54:14.715Z,13.24
2018-07-12T00:54:18.815Z,13.19
2018-07-12T00:54:22.909Z,13.19
2018-07-12T00:54:27.132Z,13.17
2018-07-12T00:54:31.225Z,13.29